Station Historical Data
Daily Summary for May 17, 2017 Units:  Metric    English   Both
« Previous Day
Next Day »
Daily Weekly Monthly Yearly Custom
  High: Low: Average:
Temperature: 28.3 °C 15.4 °C 23 °C
Dew Point: 16.9 °C 11.6 °C 15.1 °C
Humidity: 78% 46% 62%
Wind Speed: 24.1km/h 0km/h 8.2km/h
Wind Gust: 46.7km/h - -
Wind- - SW
Pressure: 1012.4 hPa 1008.4 hPa -
Precipitation: 0 mm    
Historical Graphs
 
 
Tabular Data for May 17, 2017
Time Temperature Dew Point Pressure Wind Wind Speed Wind Gust Humidity Rainfall Rate (Hourly)
00:04 16 °C 11.9 °C 1010 hPa Calm     77% 0 mm
00:09 15.9 °C 11.9 °C 1010 hPa Calm     77% 0 mm
00:14 15.9 °C 11.8 °C 1010 hPa Calm     77% 0 mm
00:19 15.8 °C 11.8 °C 1010 hPa Calm     77% 0 mm
00:24 15.7 °C 11.8 °C 1010 hPa Calm     78% 0 mm
00:29 15.6 °C 11.8 °C 1010 hPa Calm     78% 0 mm
00:34 15.5 °C 11.7 °C 1010 hPa Calm     78% 0 mm
00:39 15.5 °C 11.7 °C 1010 hPa Calm     78% 0 mm
00:44 15.4 °C 11.6 °C 1010 hPa Calm     78% 0 mm
00:49 15.6 °C 11.7 °C 1010 hPa Calm     78% 0 mm
00:54 15.8 °C 12 °C 1010 hPa Calm     78% 0 mm
00:59 16.3 °C 12.2 °C 1010 hPa Calm     77% 0 mm
01:04 16.7 °C 12.4 °C 1009.7 hPa Calm     76% 0 mm
01:09 17.3 °C 12.8 °C 1009.7 hPa Calm   6.4 km/h 75% 0 mm
01:14 17.9 °C 13.2 °C 1009.7 hPa SW 1.6 km/h 6.4 km/h 74% 0 mm
01:19 18.6 °C 13.7 °C 1009.7 hPa SW 3.2 km/h 6.4 km/h 73% 0 mm
01:24 19.5 °C 14.3 °C 1009.7 hPa WSW 4.8 km/h 8 km/h 72% 0 mm
01:29 20.1 °C 14.4 °C 1009.7 hPa SW 3.2 km/h 11.3 km/h 70% 0 mm
01:34 20.5 °C 14.6 °C 1009.7 hPa SW 4.8 km/h 11.3 km/h 69% 0 mm
01:39 20.9 °C 14.6 °C 1009.7 hPa SW 4.8 km/h 11.3 km/h 67% 0 mm
01:44 20.8 °C 14.5 °C 1009.7 hPa SSW 3.2 km/h 11.3 km/h 67% 0 mm
01:49 21 °C 14.6 °C 1009.7 hPa West 9.7 km/h 14.5 km/h 67% 0 mm
01:54 21.2 °C 14.6 °C 1009.7 hPa SW 3.2 km/h 9.7 km/h 66% 0 mm
01:59 21.3 °C 14.7 °C 1009.7 hPa SW 4.8 km/h 14.5 km/h 66% 0 mm
02:04 21.4 °C 14.8 °C 1010 hPa SW 4.8 km/h 14.5 km/h 66% 0 mm
02:09 21.3 °C 14.7 °C 1009.7 hPa South 8 km/h 11.3 km/h 66% 0 mm
02:14 21.3 °C 14.7 °C 1010 hPa SW 3.2 km/h 11.3 km/h 66% 0 mm
02:19 21.1 °C 14.7 °C 1009.7 hPa SW 3.2 km/h 9.7 km/h 67% 0 mm
02:24 21.1 °C 14.7 °C 1009.7 hPa SW 3.2 km/h 8 km/h 67% 0 mm
02:29 21.2 °C 14.8 °C 1009.7 hPa SW 3.2 km/h 8 km/h 67% 0 mm
02:34 21 °C 14.6 °C 1009.7 hPa Calm   4.8 km/h 67% 0 mm
02:39 21.1 °C 14.7 °C 1009.7 hPa WSW 4.8 km/h 9.7 km/h 67% 0 mm
02:44 21 °C 14.9 °C 1009.7 hPa WSW 3.2 km/h 9.7 km/h 68% 0 mm
02:49 20.9 °C 14.8 °C 1009.7 hPa Calm   11.3 km/h 68% 0 mm
02:54 21.2 °C 15.1 °C 1010 hPa SW 4.8 km/h 12.9 km/h 68% 0 mm
02:59 21.4 °C 15 °C 1010 hPa SW 4.8 km/h 14.5 km/h 67% 0 mm
03:04 21.4 °C 15.1 °C 1010 hPa SW 4.8 km/h 14.5 km/h 67% 0 mm
03:09 21.5 °C 15.1 °C 1009.7 hPa SW 6.4 km/h 12.9 km/h 67% 0 mm
03:14 21.5 °C 15.1 °C 1010 hPa SW 6.4 km/h 14.5 km/h 67% 0 mm
03:19 21.6 °C 15.2 °C 1010 hPa SW 6.4 km/h 11.3 km/h 67% 0 mm
03:24 21.6 °C 15.2 °C 1010 hPa WSW 6.4 km/h 14.5 km/h 67% 0 mm
03:29 21.6 °C 15.2 °C 1010 hPa South 11.3 km/h 11.3 km/h 67% 0 mm
03:34 21.6 °C 15.2 °C 1010 hPa SSW 6.4 km/h 16.1 km/h 67% 0 mm
03:39 21.6 °C 15.2 °C 1010 hPa SW 8 km/h 16.1 km/h 67% 0 mm
03:44 21.4 °C 15.1 °C 1010 hPa WSW 8 km/h 12.9 km/h 67% 0 mm
03:49 21.3 °C 15.2 °C 1010 hPa WSW 4.8 km/h 14.5 km/h 68% 0 mm
03:54 21.1 °C 14.9 °C 1010 hPa SW 6.4 km/h 14.5 km/h 68% 0 mm
03:59 20.8 °C 14.9 °C 1010 hPa SW 6.4 km/h 12.9 km/h 69% 0 mm
04:04 20.4 °C 14.5 °C 1010 hPa SSW 4.8 km/h 9.7 km/h 69% 0 mm
04:09 20.1 °C 14.4 °C 1010 hPa Calm   8 km/h 70% 0 mm
04:14 19.8 °C 14.4 °C 1010 hPa WSW 3.2 km/h 11.3 km/h 71% 0 mm
04:19 19.6 °C 14.4 °C 1010 hPa SW 4.8 km/h 11.3 km/h 72% 0 mm
04:24 19.4 °C 14.3 °C 1010 hPa SW 4.8 km/h 11.3 km/h 72% 0 mm
04:29 19.3 °C 14.4 °C 1010 hPa SW 4.8 km/h 11.3 km/h 73% 0 mm
04:34 19.1 °C 14.4 °C 1010.4 hPa WSW 3.2 km/h 9.7 km/h 74% 0 mm
04:39 18.8 °C 14.1 °C 1010 hPa WSW 3.2 km/h 8 km/h 74% 0 mm
04:44 18.8 °C 14.1 °C 1010.4 hPa SSW 6.4 km/h 8 km/h 74% 0 mm
04:49 18.8 °C 14.3 °C 1010.4 hPa WSW 4.8 km/h 9.7 km/h 75% 0 mm
04:54 18.8 °C 14.3 °C 1010.4 hPa WSW 6.4 km/h 12.9 km/h 75% 0 mm
04:59 18.8 °C 14.3 °C 1010.4 hPa WSW 3.2 km/h 8 km/h 75% 0 mm
05:04 18.8 °C 14.3 °C 1010.4 hPa SW 4.8 km/h 12.9 km/h 75% 0 mm
05:09 18.9 °C 14.2 °C 1010.4 hPa WSW 3.2 km/h 11.3 km/h 74% 0 mm
05:14 19 °C 14.4 °C 1010.7 hPa WSW 4.8 km/h 9.7 km/h 75% 0 mm
05:19 19.1 °C 14.4 °C 1010.7 hPa WSW 4.8 km/h 9.7 km/h 74% 0 mm
05:24 19.1 °C 14.4 °C 1010.7 hPa WSW 4.8 km/h 9.7 km/h 74% 0 mm
05:29 19.2 °C 14.4 °C 1010.7 hPa WSW 4.8 km/h 11.3 km/h 74% 0 mm
05:34 19.3 °C 14.5 °C 1010.7 hPa WSW 4.8 km/h 11.3 km/h 74% 0 mm
05:39 19.4 °C 14.5 °C 1010.7 hPa SW 3.2 km/h 12.9 km/h 73% 0 mm
05:44 19.6 °C 14.6 °C 1010.7 hPa WSW 6.4 km/h 14.5 km/h 73% 0 mm
05:49 19.6 °C 14.4 °C 1011.1 hPa WSW 6.4 km/h 16.1 km/h 72% 0 mm
05:54 19.6 °C 14.6 °C 1011.1 hPa WSW 3.2 km/h 9.7 km/h 73% 0 mm
05:59 19.4 °C 14.5 °C 1011.1 hPa WSW 3.2 km/h 9.7 km/h 73% 0 mm
06:04 19.3 °C 14.4 °C 1011.1 hPa WSW 3.2 km/h 12.9 km/h 73% 0 mm
06:09 19.2 °C 14.5 °C 1011.4 hPa WSW 4.8 km/h 11.3 km/h 74% 0 mm
06:14 19.3 °C 14.4 °C 1011.4 hPa WSW 4.8 km/h 11.3 km/h 73% 0 mm
06:19 19.4 °C 14.7 °C 1011.4 hPa WSW 4.8 km/h 9.7 km/h 74% 0 mm
06:24 19.7 °C 14.7 °C 1011.4 hPa WSW 4.8 km/h 12.9 km/h 73% 0 mm
06:29 19.8 °C 14.8 °C 1011.4 hPa WSW 4.8 km/h 12.9 km/h 73% 0 mm
06:34 19.9 °C 14.7 °C 1011.4 hPa WSW 4.8 km/h 12.9 km/h 72% 0 mm
06:39 20.1 °C 14.8 °C 1011.4 hPa WSW 8 km/h 11.3 km/h 72% 0 mm
06:44 20.2 °C 14.9 °C 1011.4 hPa SW 8 km/h 12.9 km/h 72% 0 mm
06:49 20.6 °C 15.1 °C 1011.4 hPa WSW 4.8 km/h 14.5 km/h 71% 0 mm
06:54 20.9 °C 15.2 °C 1011.4 hPa WSW 11.3 km/h 20.9 km/h 70% 0 mm
06:59 21 °C 15.3 °C 1011.4 hPa SW 6.4 km/h 12.9 km/h 70% 0 mm
07:04 21.3 °C 15.4 °C 1011.4 hPa West 4.8 km/h 17.7 km/h 69% 0 mm
07:09 21.5 °C 15.3 °C 1011.4 hPa South 6.4 km/h 19.3 km/h 68% 0 mm
07:14 21.6 °C 15.4 °C 1011.7 hPa SW 8 km/h 19.3 km/h 68% 0 mm
07:19 21.7 °C 15.6 °C 1011.7 hPa WSW 8 km/h 19.3 km/h 68% 0 mm
07:24 21.9 °C 15.5 °C 1011.7 hPa WSW 8 km/h 19.3 km/h 67% 0 mm
07:29 22.1 °C 15.4 °C 1011.7 hPa SW 8 km/h 16.1 km/h 66% 0 mm
07:34 22.3 °C 15.7 °C 1011.7 hPa SW 17.7 km/h 20.9 km/h 66% 0 mm
07:39 22.6 °C 15.7 °C 1012.1 hPa SW 8 km/h 20.9 km/h 65% 0 mm
07:44 22.8 °C 15.6 °C 1012.1 hPa SW 9.7 km/h 20.9 km/h 64% 0 mm
07:49 22.8 °C 15.7 °C 1012.1 hPa SW 8 km/h 20.9 km/h 64% 0 mm
07:54 23.1 °C 15.9 °C 1012.1 hPa SW 8 km/h 20.9 km/h 64% 0 mm
07:59 23.2 °C 15.8 °C 1012.1 hPa East 4.8 km/h 24.1 km/h 63% 0 mm
08:04 23.4 °C 15.9 °C 1012.1 hPa South 11.3 km/h 25.7 km/h 63% 0 mm
08:09 23.4 °C 16 °C 1012.1 hPa SW 19.3 km/h 20.9 km/h 63% 0 mm
08:14 23.6 °C 15.9 °C 1011.7 hPa WSW 11.3 km/h 22.5 km/h 62% 0 mm
08:19 23.7 °C 15.8 °C 1011.7 hPa SW 4.8 km/h 33.8 km/h 61% 0 mm
08:24 23.7 °C 16 °C 1012.1 hPa SW 11.3 km/h 20.9 km/h 62% 0 mm
08:29 23.8 °C 15.8 °C 1012.1 hPa SSW 11.3 km/h 27.4 km/h 61% 0 mm
08:34 23.9 °C 15.9 °C 1012.1 hPa SW 11.3 km/h 27.4 km/h 61% 0 mm
08:39 23.8 °C 15.8 °C 1012.1 hPa SW 11.3 km/h 25.7 km/h 61% 0 mm
08:44 23.9 °C 16.2 °C 1012.1 hPa WSW 11.3 km/h 20.9 km/h 62% 0 mm
08:49 23.8 °C 15.8 °C 1012.4 hPa SW 9.7 km/h 32.2 km/h 61% 0 mm
08:54 23.8 °C 15.8 °C 1012.1 hPa WSW 11.3 km/h 27.4 km/h 61% 0 mm
08:59 24.1 °C 15.8 °C 1012.4 hPa West 20.9 km/h 29 km/h 60% 0 mm
09:04 24.2 °C 15.7 °C 1012.4 hPa WSW 16.1 km/h 33.8 km/h 59% 0 mm
09:09 24.3 °C 16.1 °C 1012.4 hPa WSW 14.5 km/h 35.4 km/h 60% 0 mm
09:14 24.4 °C 16.2 °C 1012.4 hPa WSW 12.9 km/h 35.4 km/h 60% 0 mm
09:19 24.6 °C 15.5 °C 1012.4 hPa WSW 12.9 km/h 25.7 km/h 57% 0 mm
09:24 24.8 °C 16.2 °C 1012.4 hPa WSW 17.7 km/h 29 km/h 59% 0 mm
09:29 24.8 °C 15.7 °C 1012.4 hPa South 20.9 km/h 30.6 km/h 57% 0 mm
09:34 24.8 °C 16 °C 1012.4 hPa SW 16.1 km/h 35.4 km/h 58% 0 mm
09:39 25 °C 15.9 °C 1012.4 hPa SW 16.1 km/h 37 km/h 57% 0 mm
09:44 25 °C 16.2 °C 1012.4 hPa WSW 6.4 km/h 32.2 km/h 58% 0 mm
09:49 24.8 °C 15.7 °C 1012.4 hPa SSW 17.7 km/h 27.4 km/h 57% 0 mm
09:55 25 °C 16.2 °C 1012.1 hPa SW 16.1 km/h 37 km/h 58% 0 mm
10:00 25.1 °C 16.3 °C 1012.1 hPa SW 16.1 km/h 37 km/h 58% 0 mm
10:05 25.2 °C 16.1 °C 1012.1 hPa WSW 14.5 km/h 29 km/h 57% 0 mm
10:10 25.3 °C 16.4 °C 1012.1 hPa WSW 12.9 km/h 24.1 km/h 58% 0 mm
10:15 25.4 °C 16 °C 1012.1 hPa WSW 12.9 km/h 24.1 km/h 56% 0 mm
10:20 25.6 °C 16.4 °C 1011.7 hPa SW 14.5 km/h 32.2 km/h 57% 0 mm
10:25 25.7 °C 16.6 °C 1011.7 hPa WSW 8 km/h 25.7 km/h 57% 0 mm
10:30 25.8 °C 16.3 °C 1011.7 hPa West 14.5 km/h 33.8 km/h 56% 0 mm
10:35 25.8 °C 16.7 °C 1011.7 hPa West 8 km/h 25.7 km/h 57% 0 mm
10:40 26 °C 16.3 °C 1011.7 hPa West 9.7 km/h 25.7 km/h 55% 0 mm
10:45 25.9 °C 16.4 °C 1011.7 hPa SW 6.4 km/h 35.4 km/h 56% 0 mm
10:50 26.1 °C 16.9 °C 1011.7 hPa WSW 12.9 km/h 35.4 km/h 57% 0 mm
10:55 26.1 °C 16.4 °C 1011.7 hPa WSW 11.3 km/h 20.9 km/h 55% 0 mm
11:00 26 °C 16.6 °C 1011.7 hPa WSW 12.9 km/h 25.7 km/h 56% 0 mm
11:05 25.8 °C 16.3 °C 1011.7 hPa WSW 16.1 km/h 43.5 km/h 56% 0 mm
11:10 25.8 °C 16.3 °C 1011.7 hPa WSW 16.1 km/h 37 km/h 56% 0 mm
11:15 25.9 °C 16.5 °C 1011.7 hPa SW 12.9 km/h 33.8 km/h 56% 0 mm
11:20 26.2 °C 16.4 °C 1011.7 hPa WSW 12.9 km/h 29 km/h 55% 0 mm
11:25 26.4 °C 16.7 °C 1011.7 hPa SW 16.1 km/h 29 km/h 55% 0 mm
11:30 26.7 °C 16.9 °C 1011.7 hPa WSW 14.5 km/h 25.7 km/h 55% 0 mm
11:35 26.4 °C 16.4 °C 1011.7 hPa WSW 16.1 km/h 33.8 km/h 54% 0 mm
11:40 26.3 °C 16.3 °C 1011.7 hPa WSW 14.5 km/h 37 km/h 54% 0 mm
11:45 26.3 °C 16.5 °C 1012.1 hPa SW 17.7 km/h 43.5 km/h 55% 0 mm
11:50 25.8 °C 16.1 °C 1012.1 hPa WSW 17.7 km/h 46.7 km/h 55% 0 mm
11:55 25.6 °C 16.2 °C 1012.1 hPa West 16.1 km/h 35.4 km/h 56% 0 mm
12:00 25.6 °C 16.2 °C 1011.7 hPa WSW 17.7 km/h 33.8 km/h 56% 0 mm
12:10 26.6 °C 16.8 °C 1011.7 hPa West 11.3 km/h 24.1 km/h 55% 0 mm
12:15 26.7 °C 16.9 °C 1011.7 hPa SW 9.7 km/h 29 km/h 55% 0 mm
12:20 26.8 °C 16.7 °C 1011.7 hPa SW 14.5 km/h 33.8 km/h 54% 0 mm
12:25 26.8 °C 16.7 °C 1011.4 hPa SW 16.1 km/h 33.8 km/h 54% 0 mm
12:30 26.9 °C 16.5 °C 1011.4 hPa SW 17.7 km/h 32.2 km/h 53% 0 mm
12:35 27 °C 16.6 °C 1011.7 hPa SW 19.3 km/h 40.2 km/h 53% 0 mm
12:40 26.7 °C 16.3 °C 1011.4 hPa WSW 20.9 km/h 40.2 km/h 53% 0 mm
12:45 26.3 °C 16.2 °C 1011.7 hPa WSW 24.1 km/h 40.2 km/h 54% 0 mm
12:50 26.4 °C 16.4 °C 1011.4 hPa WSW 19.3 km/h 40.2 km/h 54% 0 mm
12:55 26.3 °C 15.9 °C 1011.4 hPa WSW 6.4 km/h 33.8 km/h 53% 0 mm
13:00 26.2 °C 16.2 °C 1011.4 hPa WSW 16.1 km/h 38.6 km/h 54% 0 mm
13:05 26.2 °C 16.1 °C 1011.4 hPa WSW 19.3 km/h 30.6 km/h 54% 0 mm
13:10 26.3 °C 16.5 °C 1011.4 hPa WSW 24.1 km/h 32.2 km/h 55% 0 mm
13:15 26.3 °C 16.3 °C 1011.4 hPa WSW 17.7 km/h 37 km/h 54% 0 mm
13:20 26.3 °C 16.2 °C 1011.4 hPa WSW 16.1 km/h 37 km/h 54% 0 mm
13:25 26.3 °C 16 °C 1011.1 hPa WSW 16.1 km/h 32.2 km/h 53% 0 mm
13:30 26.3 °C 15.9 °C 1011.1 hPa WSW 17.7 km/h 35.4 km/h 53% 0 mm
13:35 26.3 °C 16.2 °C 1011.1 hPa WSW 17.7 km/h 32.2 km/h 54% 0 mm
13:40 26.3 °C 15.9 °C 1011.1 hPa WSW 22.5 km/h 30.6 km/h 53% 0 mm
13:45 26.1 °C 15.7 °C 1011.1 hPa WNW 16.1 km/h 37 km/h 53% 0 mm
13:50 25.9 °C 15.6 °C 1011.1 hPa WSW 17.7 km/h 37 km/h 53% 0 mm
13:55 26.6 °C 16.8 °C 1011.1 hPa WSW 17.7 km/h 33.8 km/h 55% 0 mm
14:00 26.8 °C 16.4 °C 1010.7 hPa NNW 9.7 km/h 30.6 km/h 53% 0 mm
14:05 26.9 °C 16.3 °C 1010.7 hPa SW 19.3 km/h 33.8 km/h 52% 0 mm
14:10 27.3 °C 16.6 °C 1010.7 hPa WSW 14.5 km/h 29 km/h 52% 0 mm
14:15 27.6 °C 16.2 °C 1010.7 hPa WSW 16.1 km/h 35.4 km/h 50% 0 mm
14:20 27.7 °C 16.3 °C 1010.7 hPa WSW 20.9 km/h 33.8 km/h 50% 0 mm
14:25 27.9 °C 16.5 °C 1010.7 hPa WSW 17.7 km/h 30.6 km/h 50% 0 mm
14:30 28 °C 16.6 °C 1010.7 hPa SSW 19.3 km/h 33.8 km/h 50% 0 mm
14:35 28.1 °C 16.3 °C 1010.7 hPa West 12.9 km/h 30.6 km/h 49% 0 mm
14:40 28.3 °C 15.9 °C 1010.7 hPa WSW 16.1 km/h 33.8 km/h 47% 0 mm
14:45 27.9 °C 15.2 °C 1010.7 hPa WSW 17.7 km/h 43.5 km/h 46% 0 mm
14:50 27.7 °C 16 °C 1010.7 hPa WSW 17.7 km/h 43.5 km/h 49% 0 mm
14:55 27.6 °C 15.9 °C 1010.7 hPa WSW 16.1 km/h 35.4 km/h 49% 0 mm
15:00 27.7 °C 16 °C 1010.7 hPa WSW 16.1 km/h 35.4 km/h 49% 0 mm
15:05 27.7 °C 15.7 °C 1010.4 hPa WSW 9.7 km/h 33.8 km/h 48% 0 mm
15:10 27.7 °C 15.4 °C 1010.4 hPa WSW 20.9 km/h 35.4 km/h 47% 0 mm
15:15 27.6 °C 15.3 °C 1010.4 hPa WSW 16.1 km/h 35.4 km/h 47% 0 mm
15:20 27.8 °C 15.8 °C 1010.4 hPa WSW 14.5 km/h 32.2 km/h 48% 0 mm
15:25 27.3 °C 15.3 °C 1010.4 hPa SW 16.1 km/h 32.2 km/h 48% 0 mm
15:30 26.9 °C 15 °C 1010.4 hPa SW 20.9 km/h 29 km/h 48% 0 mm
15:35 26.9 °C 15.3 °C 1010.4 hPa SSW 17.7 km/h 25.7 km/h 49% 0 mm
15:40 27 °C 15.4 °C 1010.4 hPa WSW 14.5 km/h 32.2 km/h 49% 0 mm
15:45 27.2 °C 15.9 °C 1010.4 hPa WSW 14.5 km/h 32.2 km/h 50% 0 mm
15:50 27.4 °C 15.4 °C 1010.4 hPa West 8 km/h 29 km/h 48% 0 mm
15:55 27.2 °C 15.5 °C 1010.4 hPa West 11.3 km/h 37 km/h 49% 0 mm
16:00 27.1 °C 15.2 °C 1010.4 hPa WNW 9.7 km/h 30.6 km/h 48% 0 mm
16:05 27.1 °C 15.8 °C 1010.4 hPa WSW 12.9 km/h 30.6 km/h 50% 0 mm
16:10 27.4 °C 15.7 °C 1010.4 hPa WSW 12.9 km/h 27.4 km/h 49% 0 mm
16:15 27.4 °C 16.1 °C 1010.4 hPa WNW 9.7 km/h 27.4 km/h 50% 0 mm
16:20 27.3 °C 15.6 °C 1010.4 hPa WSW 12.9 km/h 27.4 km/h 49% 0 mm
16:25 27.4 °C 15.7 °C 1010 hPa WSW 14.5 km/h 25.7 km/h 49% 0 mm
16:30 27.6 °C 15.9 °C 1010.4 hPa WSW 12.9 km/h 30.6 km/h 49% 0 mm
16:35 27.7 °C 16 °C 1010 hPa WSW 20.9 km/h 32.2 km/h 49% 0 mm
16:40 27.6 °C 15.6 °C 1010 hPa WSW 9.7 km/h 32.2 km/h 48% 0 mm
16:45 27.4 °C 15.4 °C 1010 hPa West 8 km/h 20.9 km/h 48% 0 mm
16:50 27.4 °C 15.1 °C 1010 hPa SW 14.5 km/h 29 km/h 47% 0 mm
16:55 27.4 °C 15.1 °C 1010 hPa SW 16.1 km/h 33.8 km/h 47% 0 mm
17:00 27.5 °C 15.5 °C 1010 hPa WSW 4.8 km/h 22.5 km/h 48% 0 mm
17:05 27.5 °C 15.8 °C 1010 hPa WSW 11.3 km/h 24.1 km/h 49% 0 mm
17:10 27.5 °C 15.5 °C 1010 hPa WSW 12.9 km/h 27.4 km/h 48% 0 mm
17:15 27.4 °C 15.4 °C 1010 hPa WSW 12.9 km/h 27.4 km/h 48% 0 mm
17:20 27.4 °C 15.8 °C 1010 hPa WSW 11.3 km/h 24.1 km/h 49% 0 mm
17:25 27.7 °C 16 °C 1010 hPa West 11.3 km/h 17.7 km/h 49% 0 mm
17:30 27.8 °C 15.8 °C 1010 hPa SW 9.7 km/h 20.9 km/h 48% 0 mm
17:35 27.8 °C 15.8 °C 1010 hPa WSW 11.3 km/h 20.9 km/h 48% 0 mm
17:40 27.5 °C 15.5 °C 1010 hPa WSW 6.4 km/h 17.7 km/h 48% 0 mm
17:45 27.2 °C 15.5 °C 1010 hPa SW 8 km/h 16.1 km/h 49% 0 mm
17:50 26.9 °C 15.3 °C 1010 hPa SW 6.4 km/h 19.3 km/h 49% 0 mm
17:55 26.6 °C 15.3 °C 1010 hPa WSW 12.9 km/h 17.7 km/h 50% 0 mm
18:00 26.6 °C 15.3 °C 1010 hPa WSW 8 km/h 17.7 km/h 50% 0 mm
18:05 26.6 °C 15.6 °C 1009.7 hPa WSW 8 km/h 16.1 km/h 51% 0 mm
18:10 26.4 °C 15.8 °C 1010 hPa SW 8 km/h 16.1 km/h 52% 0 mm
18:15 26.4 °C 15.5 °C 1010 hPa SSW 11.3 km/h 12.9 km/h 51% 0 mm
18:20 26.3 °C 15.6 °C 1010 hPa SW 11.3 km/h 11.3 km/h 52% 0 mm
18:25 25.9 °C 15 °C 1010 hPa SSW 8 km/h 16.1 km/h 51% 0 mm
18:30 25.6 °C 15 °C 1010 hPa SW 9.7 km/h 17.7 km/h 52% 0 mm
18:40 25.1 °C 14.8 °C 1010 hPa SW 11.3 km/h 12.9 km/h 53% 0 mm
18:45 24.7 °C 14.8 °C 1010 hPa SW 6.4 km/h 12.9 km/h 54% 0 mm
18:50 24.3 °C 14.7 °C 1010 hPa SW 6.4 km/h 14.5 km/h 55% 0 mm
18:55 24.1 °C 14.5 °C 1010 hPa SW 6.4 km/h 14.5 km/h 55% 0 mm
19:00 23.8 °C 14.5 °C 1010 hPa WSW 8 km/h 12.9 km/h 56% 0 mm
19:10 23.2 °C 14.5 °C 1010 hPa SSW 6.4 km/h 12.9 km/h 58% 0 mm
19:15 22.9 °C 14.2 °C 1010 hPa SW 3.2 km/h 11.3 km/h 58% 0 mm
19:20 22.8 °C 14.3 °C 1010 hPa SW 4.8 km/h 11.3 km/h 59% 0 mm
19:25 22.6 °C 14.4 °C 1010 hPa SW 6.4 km/h 11.3 km/h 60% 0 mm
19:30 22.5 °C 14.3 °C 1010 hPa SW 4.8 km/h 11.3 km/h 60% 0 mm
19:35 22.3 °C 14.4 °C 1009.7 hPa SW 4.8 km/h 9.7 km/h 61% 0 mm
19:40 22 °C 14.1 °C 1009.7 hPa SSW 4.8 km/h 11.3 km/h 61% 0 mm
19:45 21.8 °C 13.9 °C 1009.7 hPa SW 4.8 km/h 11.3 km/h 61% 0 mm
19:50 21.6 °C 14.3 °C 1009.7 hPa SW 4.8 km/h 9.7 km/h 63% 0 mm
19:55 21.4 °C 14.1 °C 1009.7 hPa South 4.8 km/h 8 km/h 63% 0 mm
20:00 21.3 °C 14.2 °C 1009.4 hPa SSW 4.8 km/h 8 km/h 64% 0 mm
20:05 21.2 °C 14.1 °C 1009.7 hPa SSW 1.6 km/h 6.4 km/h 64% 0 mm
20:10 21.1 °C 14.2 °C 1009.4 hPa Calm   1.6 km/h 65% 0 mm
20:15 20.9 °C 14.3 °C 1009.4 hPa SW 3.2 km/h 4.8 km/h 66% 0 mm
20:20 20.8 °C 14.2 °C 1009.4 hPa Calm   3.2 km/h 66% 0 mm
20:25 20.8 °C 14.2 °C 1009.4 hPa Calm   3.2 km/h 66% 0 mm
20:30 20.7 °C 14.3 °C 1009.4 hPa Calm   1.6 km/h 67% 0 mm
20:35 20.6 °C 14.2 °C 1009.4 hPa Calm     67% 0 mm
20:40 20.3 °C 14 °C 1009 hPa Calm     67% 0 mm
20:45 20.3 °C 14.2 °C 1009 hPa Calm     68% 0 mm
20:50 20.3 °C 14.2 °C 1009 hPa Calm     68% 0 mm
20:55 20.2 °C 14.1 °C 1009 hPa Calm     68% 0 mm
21:00 20.1 °C 14.2 °C 1009 hPa Calm     69% 0 mm
21:05 20.1 °C 14.2 °C 1009 hPa Calm     69% 0 mm
21:10 20 °C 14.1 °C 1009 hPa Calm     69% 0 mm
21:15 19.9 °C 14.1 °C 1008.7 hPa Calm     69% 0 mm
21:20 19.8 °C 14.2 °C 1009 hPa Calm     70% 0 mm
21:25 19.7 °C 14.3 °C 1009 hPa Calm     71% 0 mm
21:30 19.6 °C 14.2 °C 1009 hPa Calm     71% 0 mm
21:35 19.5 °C 14.1 °C 1009 hPa Calm     71% 0 mm
21:40 19.4 °C 14.2 °C 1008.7 hPa Calm     72% 0 mm
21:45 19.3 °C 14.2 °C 1009 hPa Calm     72% 0 mm
21:50 19.3 °C 14.4 °C 1009 hPa Calm     73% 0 mm
21:55 19.2 °C 14.3 °C 1009 hPa Calm     73% 0 mm
22:00 19.2 °C 14.4 °C 1009 hPa Calm     74% 0 mm
22:05 19.1 °C 14.3 °C 1009 hPa Calm     74% 0 mm
22:10 19 °C 14.3 °C 1009 hPa Calm     74% 0 mm
22:15 19 °C 14.4 °C 1008.7 hPa Calm     75% 0 mm
22:20 19.1 °C 14.5 °C 1009 hPa Calm     75% 0 mm
22:25 19.1 °C 14.6 °C 1008.7 hPa Calm     75% 0 mm
22:30 19.3 °C 14.7 °C 1009 hPa Calm     75% 0 mm
22:35 19.6 °C 14.8 °C 1008.7 hPa Calm     74% 0 mm
22:40 20 °C 15 °C 1009 hPa Calm   3.2 km/h 73% 0 mm
22:45 20.3 °C 15.1 °C 1008.7 hPa South 1.6 km/h 4.8 km/h 72% 0 mm
22:50 20.7 °C 15.2 °C 1008.7 hPa SSW 1.6 km/h 4.8 km/h 71% 0 mm
22:55 21 °C 15.3 °C 1008.7 hPa SSW 1.6 km/h 6.4 km/h 70% 0 mm
23:00 21.3 °C 15.3 °C 1008.7 hPa SSW 4.8 km/h 9.7 km/h 69% 0 mm
23:05 21.7 °C 15.5 °C 1008.7 hPa SSW 1.6 km/h 8 km/h 68% 0 mm
23:10 22.1 °C 15.7 °C 1008.7 hPa SSW 1.6 km/h 8 km/h 67% 0 mm
23:15 22.3 °C 15.4 °C 1008.4 hPa SSW 3.2 km/h 9.7 km/h 65% 0 mm
23:20 22.5 °C 15.6 °C 1008.4 hPa SSW 3.2 km/h 9.7 km/h 65% 0 mm
23:25 22.7 °C 15.3 °C 1008.7 hPa SSW 4.8 km/h 9.7 km/h 63% 0 mm
23:30 23 °C 15.3 °C 1008.7 hPa SSW 4.8 km/h 11.3 km/h 62% 0 mm
23:35 23.2 °C 15.5 °C 1008.7 hPa SSW 4.8 km/h 11.3 km/h 62% 0 mm
23:40 23.4 °C 15.4 °C 1008.7 hPa SSW 4.8 km/h 9.7 km/h 61% 0 mm
23:45 23.5 °C 15.6 °C 1008.7 hPa Calm   8 km/h 61% 0 mm
23:50 23.6 °C 15.3 °C 1008.7 hPa SSW 4.8 km/h 14.5 km/h 60% 0 mm
23:55 23.7 °C 15.4 °C 1008.7 hPa SW 4.8 km/h 14.5 km/h 60% 0 mm
Buffalo, New York, USA
Compliments of Weather Underground - 2.5 mb